createdAt,value
2019-02-27T00:05:10.803Z,16.00
2019-02-27T00:07:40.136Z,15.17
2019-02-27T00:10:09.647Z,16.27
2019-02-27T00:12:38.953Z,15.67
2019-02-27T00:15:08.502Z,15.37
2019-02-27T00:17:37.848Z,15.37
2019-02-27T00:23:09.379Z,15.27
2019-02-27T00:25:38.689Z,16.43
2019-02-27T00:28:07.994Z,14.57
2019-02-27T00:30:38.135Z,15.47
2019-02-27T00:33:28.459Z,15.03
2019-02-27T00:36:14.831Z,14.50
2019-02-27T00:38:43.348Z,14.63
2019-02-27T00:41:13.066Z,14.67
2019-02-27T00:44:02.019Z,14.40
2019-02-27T00:46:31.408Z,13.93
2019-02-27T00:49:00.717Z,14.83
2019-02-27T00:51:30.024Z,13.50
2019-02-27T00:53:59.348Z,14.03
2019-02-27T00:56:28.651Z,13.90
2019-02-27T00:58:59.873Z,13.93
2019-02-27T01:01:27.381Z,14.23
2019-02-27T01:03:59.256Z,13.47
2019-02-27T01:06:47.569Z,13.37
2019-02-27T01:09:37.207Z,13.30
2019-02-27T01:12:25.268Z,13.90
2019-02-27T01:15:13.663Z,12.70
2019-02-27T01:17:43.006Z,13.53
2019-02-27T01:20:12.563Z,13.77
2019-02-27T01:25:47.622Z,13.93
2019-02-27T01:28:16.930Z,14.20
2019-02-27T01:30:46.245Z,13.33
2019-02-27T01:33:15.560Z,14.07
2019-02-27T01:35:44.906Z,13.63
2019-02-27T01:38:14.225Z,14.90
2019-02-27T01:40:43.539Z,14.70
2019-02-27T01:43:12.998Z,13.47
2019-02-27T01:45:41.401Z,14.40
2019-02-27T01:48:09.891Z,13.77
2019-02-27T01:50:50.176Z,15.47
2019-02-27T01:53:18.578Z,14.47
2019-02-27T01:55:47.893Z,14.93
2019-02-27T01:58:17.208Z,13.57
2019-02-27T02:00:46.525Z,14.97
2019-02-27T02:03:15.846Z,15.27
2019-02-27T02:05:45.355Z,16.77
2019-02-27T02:08:14.781Z,14.17
2019-02-27T02:10:43.195Z,15.67
2019-02-27T02:13:33.474Z,13.77
2019-02-27T02:16:40.933Z,14.27
2019-02-27T02:19:48.974Z,14.30
2019-02-27T02:22:56.223Z,14.30
2019-02-27T02:26:06.158Z,14.97
2019-02-27T02:29:14.310Z,15.73
2019-02-27T02:31:51.753Z,14.83
2019-02-27T02:34:58.946Z,13.77
2019-02-27T02:37:51.622Z,14.57
2019-02-27T02:40:59.659Z,15.17
2019-02-27T02:44:06.861Z,16.07
2019-02-27T02:47:08.221Z,14.10
2019-02-27T02:50:19.223Z,14.00
2019-02-27T02:53:27.280Z,13.90
2019-02-27T02:56:34.516Z,14.63
2019-02-27T02:59:41.674Z,16.17
2019-02-27T03:02:23.561Z,15.37
2019-02-27T03:05:47.350Z,15.33
2019-02-27T03:08:40.471Z,14.90
2019-02-27T03:11:34.232Z,15.40
2019-02-27T03:14:41.486Z,16.87
2019-02-27T03:17:35.658Z,17.70
2019-02-27T03:20:42.796Z,16.00
2019-02-27T03:23:33.784Z,15.70
2019-02-27T03:26:26.653Z,15.17
2019-02-27T03:29:33.967Z,15.20
2019-02-27T03:32:43.805Z,15.07
2019-02-27T03:35:52.019Z,15.40
2019-02-27T03:39:00.320Z,14.83
2019-02-27T03:42:07.715Z,15.47
2019-02-27T03:45:14.862Z,17.73
2019-02-27T03:48:09.630Z,15.90
2019-02-27T03:51:01.111Z,16.23
2019-02-27T03:53:55.226Z,16.03
2019-02-27T03:56:51.059Z,15.63
2019-02-27T03:59:58.200Z,15.93
2019-02-27T04:02:49.472Z,15.83
2019-02-27T04:05:57.511Z,15.63
2019-02-27T04:09:06.163Z,16.10
2019-02-27T04:11:41.492Z,15.23
2019-02-27T04:14:44.139Z,15.77
2019-02-27T04:17:13.445Z,16.10
2019-02-27T04:19:41.860Z,16.90
2019-02-27T04:22:10.252Z,17.23
2019-02-27T04:24:38.725Z,18.33
2019-02-27T04:27:08.023Z,17.50
2019-02-27T04:29:40.847Z,17.37
2019-02-27T04:32:26.538Z,17.70
2019-02-27T04:34:54.958Z,21.47
2019-02-27T04:37:24.275Z,21.53
2019-02-27T04:39:53.628Z,20.17
2019-02-27T04:42:23.012Z,19.73
2019-02-27T04:45:12.418Z,21.53
2019-02-27T04:48:00.582Z,21.40
2019-02-27T04:50:29.887Z,22.43
2019-02-27T04:52:59.204Z,22.33
2019-02-27T04:55:28.523Z,19.53
2019-02-27T04:57:57.835Z,21.90
2019-02-27T05:00:27.153Z,24.47
2019-02-27T05:02:56.484Z,24.67
2019-02-27T05:05:25.800Z,24.53
2019-02-27T05:07:54.894Z,31.50
2019-02-27T05:10:43.440Z,32.80
2019-02-27T05:13:12.767Z,31.77
2019-02-27T05:15:42.075Z,35.30
2019-02-27T05:18:11.387Z,32.63
2019-02-27T05:20:44.806Z,36.83
2019-02-27T05:23:30.869Z,32.33
2019-02-27T05:26:19.148Z,31.17
2019-02-27T05:28:48.472Z,29.17
2019-02-27T05:31:19.006Z,29.67
2019-02-27T05:34:06.993Z,29.37
2019-02-27T05:36:35.402Z,27.90
2019-02-27T05:39:05.745Z,24.97
2019-02-27T05:44:36.000Z,22.97
2019-02-27T05:47:05.315Z,23.93
2019-02-27T05:49:34.660Z,22.27
2019-02-27T05:52:03.973Z,23.33
2019-02-27T05:54:33.293Z,24.17
2019-02-27T05:57:02.614Z,25.17
2019-02-27T05:59:31.923Z,24.67
2019-02-27T06:02:01.259Z,24.53
2019-02-27T06:04:30.562Z,23.60
2019-02-27T06:06:59.878Z,24.33
2019-02-27T06:09:29.184Z,25.97
2019-02-27T06:11:57.673Z,25.57
2019-02-27T06:14:26.179Z,25.03
2019-02-27T06:16:55.489Z,23.83
2019-02-27T06:19:24.786Z,22.90
2019-02-27T06:21:56.356Z,27.03
2019-02-27T06:24:45.577Z,24.17
2019-02-27T06:27:32.556Z,22.20
2019-02-27T06:30:01.881Z,22.93
2019-02-27T06:32:31.196Z,21.73
2019-02-27T06:34:59.984Z,23.00
2019-02-27T06:37:50.769Z,22.77
2019-02-27T06:40:42.045Z,26.33
2019-02-27T06:43:27.873Z,25.87
2019-02-27T06:46:17.383Z,25.73
2019-02-27T06:49:05.682Z,21.80
2019-02-27T06:51:35.874Z,21.03
2019-02-27T06:54:24.215Z,19.37
2019-02-27T06:56:52.659Z,20.53
2019-02-27T06:59:24.627Z,20.73
2019-02-27T07:02:10.332Z,20.73
2019-02-27T07:04:39.456Z,19.60
2019-02-27T07:07:28.776Z,18.83
2019-02-27T07:10:20.006Z,19.37
2019-02-27T07:12:47.839Z,18.20
2019-02-27T07:15:17.355Z,17.40
2019-02-27T07:17:45.994Z,17.10
2019-02-27T07:20:15.432Z,17.37
2019-02-27T07:22:46.512Z,17.30
2019-02-27T07:25:14.566Z,18.00
2019-02-27T07:27:43.079Z,15.73
2019-02-27T07:30:13.865Z,16.37
2019-02-27T07:32:42.294Z,16.30
2019-02-27T07:35:11.763Z,16.07
2019-02-27T07:37:41.201Z,17.00
2019-02-27T07:40:12.049Z,16.23
2019-02-27T07:42:41.464Z,14.50
2019-02-27T07:45:13.153Z,15.00
2019-02-27T07:47:41.660Z,15.50
2019-02-27T07:50:12.781Z,16.07
2019-02-27T07:52:41.147Z,15.30
2019-02-27T07:55:21.300Z,14.47
2019-02-27T07:57:41.753Z,14.93
2019-02-27T08:00:15.138Z,14.67
2019-02-27T08:02:44.346Z,16.03
2019-02-27T08:05:13.770Z,15.90
2019-02-27T08:07:43.190Z,16.33
2019-02-27T08:10:14.716Z,17.33
2019-02-27T08:12:43.125Z,16.70
2019-02-27T08:15:13.664Z,16.67
2019-02-27T08:17:42.344Z,17.20
2019-02-27T08:23:15.543Z,14.93
2019-02-27T08:26:05.193Z,12.33
2019-02-27T08:28:53.066Z,16.70
2019-02-27T08:31:22.408Z,17.33
2019-02-27T08:33:50.826Z,16.43
2019-02-27T08:36:20.134Z,15.17
2019-02-27T08:38:49.477Z,14.53
2019-02-27T08:41:17.896Z,12.97
2019-02-27T08:43:46.332Z,13.90
2019-02-27T08:46:15.639Z,11.57
2019-02-27T08:48:44.954Z,11.73
2019-02-27T08:51:14.289Z,11.63
2019-02-27T08:53:43.608Z,13.87
2019-02-27T08:56:12.992Z,13.63
2019-02-27T08:58:42.271Z,12.23
2019-02-27T09:01:11.912Z,14.73
2019-02-27T09:03:40.348Z,14.33
2019-02-27T09:06:08.874Z,15.10
2019-02-27T09:08:38.197Z,12.70
2019-02-27T09:11:07.518Z,11.80
2019-02-27T09:13:36.826Z,11.53
2019-02-27T09:16:05.326Z,15.10
2019-02-27T09:18:36.451Z,15.77
2019-02-27T09:21:24.951Z,11.63
2019-02-27T09:24:13.154Z,9.10
2019-02-27T09:26:42.399Z,9.87
2019-02-27T09:29:30.955Z,13.80
2019-02-27T09:32:00.272Z,10.50
2019-02-27T09:34:29.624Z,8.60
2019-02-27T09:36:58.923Z,9.73
2019-02-27T09:39:31.246Z,10.60
2019-02-27T09:42:19.128Z,10.43
2019-02-27T09:45:35.117Z,9.80
2019-02-27T09:48:04.139Z,10.63
2019-02-27T09:50:37.389Z,8.93
2019-02-27T09:53:06.041Z,10.00
2019-02-27T09:55:35.390Z,8.67
2019-02-27T09:58:10.039Z,9.60
2019-02-27T10:01:00.294Z,8.13
2019-02-27T10:03:28.162Z,9.03
2019-02-27T10:05:57.525Z,9.00
2019-02-27T10:08:26.847Z,7.73
2019-02-27T10:10:56.160Z,8.07
2019-02-27T10:13:24.608Z,8.70
2019-02-27T10:15:53.047Z,7.30
2019-02-27T10:18:22.389Z,7.27
2019-02-27T10:20:51.704Z,7.20
2019-02-27T10:23:21.043Z,6.97
2019-02-27T10:25:50.402Z,6.37
2019-02-27T10:28:19.723Z,8.47
2019-02-27T10:30:49.945Z,7.67
2019-02-27T10:33:38.283Z,6.10
2019-02-27T10:36:07.622Z,6.30
2019-02-27T10:38:40.262Z,7.07
2019-02-27T10:41:25.338Z,6.17
2019-02-27T10:43:56.492Z,6.93
2019-02-27T10:46:43.888Z,5.23
2019-02-27T10:49:13.199Z,5.57
2019-02-27T10:51:43.742Z,6.33
2019-02-27T10:54:12.944Z,5.80
2019-02-27T10:56:42.263Z,7.00
2019-02-27T10:59:10.787Z,6.30
2019-02-27T11:01:40.124Z,6.90
2019-02-27T11:04:09.450Z,6.43
2019-02-27T11:06:38.402Z,6.57
2019-02-27T11:12:17.572Z,5.93
2019-02-27T11:14:46.093Z,6.80
2019-02-27T11:17:15.416Z,6.03
2019-02-27T11:19:44.748Z,5.70
2019-02-27T11:22:14.060Z,7.30
2019-02-27T11:24:43.390Z,5.20
2019-02-27T11:27:12.711Z,5.53
2019-02-27T11:29:42.026Z,4.47
2019-02-27T11:32:10.439Z,3.90
2019-02-27T11:34:38.963Z,3.90
2019-02-27T11:37:12.705Z,3.57
2019-02-27T11:39:56.611Z,4.10
2019-02-27T11:42:25.969Z,5.60
2019-02-27T11:44:55.297Z,5.17
2019-02-27T11:47:23.830Z,3.83
2019-02-27T11:49:53.200Z,4.80
2019-02-27T11:52:21.720Z,4.57
2019-02-27T15:38:32.272Z,9.50
2019-02-27T15:41:03.165Z,9.67
2019-02-27T15:43:59.834Z,9.33
2019-02-27T15:46:40.096Z,11.00
2019-02-27T15:49:09.413Z,11.60
2019-02-27T15:51:38.025Z,13.77
2019-02-27T15:54:06.690Z,12.70
2019-02-27T15:56:36.020Z,11.23
2019-02-27T15:59:08.110Z,10.70
2019-02-27T16:01:54.556Z,10.90
2019-02-27T16:04:24.113Z,11.93
2019-02-27T16:06:53.444Z,11.50
2019-02-27T16:09:22.778Z,12.27
2019-02-27T16:11:52.430Z,12.73
2019-02-27T16:14:42.850Z,14.13
2019-02-27T16:17:31.419Z,14.30
2019-02-27T16:20:19.280Z,14.03
2019-02-27T16:22:48.616Z,12.33
2019-02-27T16:25:19.940Z,10.40
2019-02-27T16:28:11.472Z,10.10
2019-02-27T16:30:57.519Z,11.57
2019-02-27T16:33:28.552Z,14.47
2019-02-27T16:36:16.450Z,19.40
2019-02-27T16:39:07.390Z,21.00
2019-02-27T16:41:54.975Z,23.43
2019-02-27T16:44:24.292Z,22.87
2019-02-27T16:46:53.619Z,22.97
2019-02-27T16:49:22.960Z,20.60
2019-02-27T16:51:52.270Z,22.33
2019-02-27T16:54:20.990Z,24.40
2019-02-27T16:56:51.046Z,23.40
2019-02-27T16:59:42.261Z,22.63
2019-02-27T17:02:28.743Z,19.50
2019-02-27T17:04:58.065Z,20.03
2019-02-27T17:07:27.378Z,17.87
2019-02-27T17:09:56.698Z,13.53
2019-02-27T17:12:26.023Z,13.73
2019-02-27T17:14:58.391Z,13.30
2019-02-27T17:17:44.560Z,13.50
2019-02-27T17:20:14.674Z,12.80
2019-02-27T17:22:43.594Z,13.80
2019-02-27T17:25:12.364Z,14.27
2019-02-27T17:27:41.802Z,17.27
2019-02-27T17:30:14.635Z,18.23
2019-02-27T17:32:43.698Z,18.87
2019-02-27T17:37:56.054Z,20.17
2019-02-27T17:40:24.889Z,17.87
2019-02-27T17:42:54.506Z,17.60
2019-02-27T17:45:23.271Z,16.60
2019-02-27T17:47:52.657Z,15.60
2019-02-27T17:50:22.176Z,15.87
2019-02-27T17:52:51.693Z,17.47
2019-02-27T17:55:21.005Z,17.40
2019-02-27T17:57:50.342Z,17.07
2019-02-27T18:03:22.640Z,21.13
2019-02-27T18:05:51.961Z,20.97
2019-02-27T18:08:21.280Z,23.87
2019-02-27T18:10:50.646Z,20.97
2019-02-27T18:13:19.974Z,19.80
2019-02-27T18:15:49.354Z,20.73
2019-02-27T18:18:18.679Z,21.87
2019-02-27T18:20:47.398Z,24.63
2019-02-27T18:23:16.006Z,25.63
2019-02-27T18:25:45.324Z,25.83
2019-02-27T18:28:14.691Z,26.13
2019-02-27T18:30:44.111Z,23.97
2019-02-27T18:33:14.801Z,23.47
2019-02-27T18:36:15.742Z,25.80
2019-02-27T18:38:44.459Z,29.53
2019-02-27T18:41:14.488Z,31.20
2019-02-27T18:44:04.682Z,31.27
2019-02-27T18:46:52.234Z,31.43
2019-02-27T18:49:21.560Z,30.60
2019-02-27T18:51:50.216Z,29.60
2019-02-27T18:54:21.700Z,29.57
2019-02-27T18:57:07.951Z,23.83
2019-02-27T18:59:37.262Z,24.77
2019-02-27T19:02:27.752Z,23.63
2019-02-27T19:04:57.084Z,23.37
2019-02-27T19:07:26.412Z,24.20
2019-02-27T19:09:55.740Z,24.03
2019-02-27T19:12:28.531Z,27.30
2019-02-27T19:18:18.392Z,25.13
2019-02-27T19:20:47.708Z,25.53
2019-02-27T19:23:18.352Z,25.57
2019-02-27T19:26:09.409Z,23.87
2019-02-27T19:28:36.866Z,23.93
2019-02-27T19:31:05.592Z,23.67
2019-02-27T19:33:35.788Z,25.03
2019-02-27T19:36:24.136Z,26.93
2019-02-27T19:38:52.751Z,26.97
2019-02-27T19:41:21.357Z,29.10
2019-02-27T19:43:54.940Z,28.73
2019-02-27T19:46:39.203Z,29.77
2019-02-27T19:49:08.519Z,28.27
2019-02-27T19:51:37.838Z,25.30
2019-02-27T19:54:07.260Z,24.27
2019-02-27T19:56:36.574Z,22.07
2019-02-27T19:59:06.093Z,23.87
2019-02-27T20:01:34.793Z,23.77
2019-02-27T20:04:03.403Z,21.20
2019-02-27T20:06:32.051Z,19.80
2019-02-27T20:09:01.371Z,20.17
2019-02-27T20:14:14.160Z,18.97
2019-02-27T20:16:43.666Z,18.70
2019-02-27T20:19:21.988Z,18.30
2019-02-27T20:22:02.175Z,18.43
2019-02-27T20:24:32.458Z,18.67
2019-02-27T20:27:21.028Z,18.60
2019-02-27T20:29:49.739Z,19.57
2019-02-27T20:32:19.079Z,19.33
2019-02-27T20:34:48.455Z,17.93
2019-02-27T20:37:17.882Z,18.00
2019-02-27T20:39:46.699Z,19.37
2019-02-27T20:42:15.342Z,17.83
2019-02-27T20:44:44.652Z,19.03
2019-02-27T20:47:13.370Z,19.40
2019-02-27T20:49:44.730Z,20.47
2019-02-27T20:52:31.910Z,21.00
2019-02-27T20:55:01.224Z,22.67
2019-02-27T20:57:30.560Z,21.37
2019-02-27T21:00:02.152Z,21.13
2019-02-27T21:02:50.367Z,21.97
2019-02-27T21:05:41.098Z,20.90
2019-02-27T21:08:27.659Z,20.73
2019-02-27T21:10:56.999Z,20.67
2019-02-27T21:13:26.301Z,20.00
2019-02-27T21:15:55.629Z,19.90
2019-02-27T21:18:25.158Z,20.30
2019-02-27T21:20:54.475Z,21.27
2019-02-27T21:23:23.932Z,21.90
2019-02-27T21:25:53.253Z,21.37
2019-02-27T21:28:22.568Z,21.67
2019-02-27T21:30:52.465Z,21.23
2019-02-27T21:33:21.815Z,21.10
2019-02-27T21:35:50.519Z,20.43
2019-02-27T21:38:19.841Z,19.47
2019-02-27T21:40:48.457Z,19.03
2019-02-27T21:43:17.775Z,18.73
2019-02-27T21:45:47.102Z,17.20
2019-02-27T21:48:16.516Z,16.83
2019-02-27T21:50:45.862Z,15.43
2019-02-27T21:53:14.772Z,15.70
2019-02-27T21:55:44.918Z,15.57
2019-02-27T21:58:33.337Z,15.77
2019-02-27T22:01:02.991Z,14.33
2019-02-27T22:03:31.599Z,16.57
2019-02-27T22:06:00.217Z,14.53
2019-02-27T22:08:29.584Z,14.77
2019-02-27T22:10:58.203Z,15.00
2019-02-27T22:13:30.295Z,14.87
2019-02-27T22:15:58.061Z,15.73
2019-02-27T22:18:26.766Z,15.47
2019-02-27T22:20:59.423Z,15.47
2019-02-27T22:23:28.330Z,15.60
2019-02-27T22:26:15.999Z,14.63
2019-02-27T22:28:45.310Z,14.50
2019-02-27T22:31:13.962Z,12.63
2019-02-27T22:33:42.464Z,13.83
2019-02-27T22:36:12.771Z,14.63
2019-02-27T22:41:44.472Z,13.63
2019-02-27T22:44:13.967Z,13.97
2019-02-27T22:46:43.304Z,13.03
2019-02-27T22:54:38.386Z,16.17
2019-02-27T22:57:07.702Z,15.20
2019-02-27T22:59:37.414Z,18.90
2019-02-27T23:02:25.686Z,17.60
2019-02-27T23:04:54.286Z,19.20
2019-02-27T23:07:23.647Z,21.93
2019-02-27T23:12:55.258Z,19.63
2019-02-27T23:18:27.444Z,20.83
2019-02-27T23:20:56.171Z,20.27
2019-02-27T23:23:25.583Z,21.57
2019-02-27T23:25:55.031Z,21.37
2019-02-27T23:28:24.352Z,21.00
2019-02-27T23:30:53.766Z,20.87
2019-02-27T23:33:24.688Z,21.33
2019-02-27T23:36:12.290Z,21.03
2019-02-27T23:38:41.619Z,21.43
2019-02-27T23:41:10.925Z,21.37
2019-02-27T23:43:39.529Z,23.30
2019-02-27T23:46:08.130Z,22.20
2019-02-27T23:48:37.501Z,22.57
2019-02-27T23:51:06.810Z,22.13
2019-02-27T23:53:36.123Z,23.07
2019-02-27T23:56:05.466Z,22.27
2019-02-27T23:58:34.779Z,22.77
